Supai, Arizona
Current Conditions -  °F | °C
As of 4:54 PM on Saturday 25 Oct 2014 (Local Time) from KGCN Reporting Station
Scattered Clouds Scattered Clouds  
Wind Chill: 67°   Ceiling: Unl
Heat Index: 67°   Visibility: 10mi
Dew Point: 38°   Wind: 17mph
Humidity: 34%   Direction: 230°SW
Pressure: 30.24"   Gusts: 23mph
Location:  36.22°N, 112.69°W
Report Text: KGCN 252354Z 23015G20KT 10SM SCT070 19/03 A3024 RMK AO2 PK WND 24026/2336 SLP191 T01940033 10217 20189 56011
Loading
Personal Weather Stations






























Interactive Weather Map
Tropical Storm Tracking
New forecast layout! Learn more

10-Day Weather Forecast

Advertisements
Track Severe Weather on mobile